sensor_id;sensor_type;location;lat;lon;timestamp;P1;durP1;ratioP1;P2;durP2;ratioP2
7473;SDS011;3778;42.572;23.426;2024-01-10T00:00:12;4.68;;;2.47;;
7473;SDS011;3778;42.572;23.426;2024-01-10T00:02:37;5.80;;;2.38;;
7473;SDS011;3778;42.572;23.426;2024-01-10T00:05:03;6.22;;;2.05;;
7473;SDS011;3778;42.572;23.426;2024-01-10T00:07:29;2.92;;;2.00;;
7473;SDS011;3778;42.572;23.426;2024-01-10T00:09:54;3.85;;;2.00;;
7473;SDS011;3778;42.572;23.426;2024-01-10T00:12:20;2.42;;;1.55;;
7473;SDS011;3778;42.572;23.426;2024-01-10T00:14:46;2.78;;;1.52;;
7473;SDS011;3778;42.572;23.426;2024-01-10T00:17:11;2.78;;;1.50;;
7473;SDS011;3778;42.572;23.426;2024-01-10T00:19:37;4.68;;;2.00;;
7473;SDS011;3778;42.572;23.426;2024-01-10T00:22:02;4.82;;;1.70;;
7473;SDS011;3778;42.572;23.426;2024-01-10T00:24:28;3.70;;;2.22;;
7473;SDS011;3778;42.572;23.426;2024-01-10T00:26:53;2.92;;;1.55;;
7473;SDS011;3778;42.572;23.426;2024-01-10T00:29:18;1.63;;;1.48;;
7473;SDS011;3778;42.572;23.426;2024-01-10T00:31:44;4.22;;;2.10;;
7473;SDS011;3778;42.572;23.426;2024-01-10T00:34:09;4.68;;;3.05;;
7473;SDS011;3778;42.572;23.426;2024-01-10T00:36:35;6.38;;;3.33;;
7473;SDS011;3778;42.572;23.426;2024-01-10T00:39:00;4.70;;;2.97;;
7473;SDS011;3778;42.572;23.426;2024-01-10T00:41:26;5.45;;;3.30;;
7473;SDS011;3778;42.572;23.426;2024-01-10T00:43:53;5.72;;;2.67;;
7473;SDS011;3778;42.572;23.426;2024-01-10T00:46:18;4.18;;;2.28;;
7473;SDS011;3778;42.572;23.426;2024-01-10T00:48:43;2.78;;;1.85;;
7473;SDS011;3778;42.572;23.426;2024-01-10T00:51:09;3.20;;;2.22;;
7473;SDS011;3778;42.572;23.426;2024-01-10T00:53:35;3.90;;;2.17;;
7473;SDS011;3778;42.572;23.426;2024-01-10T00:56:00;6.13;;;2.60;;
7473;SDS011;3778;42.572;23.426;2024-01-10T00:58:26;5.38;;;2.55;;
7473;SDS011;3778;42.572;23.426;2024-01-10T01:00:51;3.13;;;2.58;;
7473;SDS011;3778;42.572;23.426;2024-01-10T01:03:16;5.47;;;2.38;;
7473;SDS011;3778;42.572;23.426;2024-01-10T01:05:42;3.15;;;2.10;;
7473;SDS011;3778;42.572;23.426;2024-01-10T01:08:07;4.53;;;2.72;;
7473;SDS011;3778;42.572;23.426;2024-01-10T01:10:33;3.85;;;2.60;;
7473;SDS011;3778;42.572;23.426;2024-01-10T01:12:58;4.57;;;3.13;;
7473;SDS011;3778;42.572;23.426;2024-01-10T01:15:24;7.80;;;3.63;;
7473;SDS011;3778;42.572;23.426;2024-01-10T01:17:49;5.88;;;3.78;;
7473;SDS011;3778;42.572;23.426;2024-01-10T01:20:15;8.13;;;3.70;;
7473;SDS011;3778;42.572;23.426;2024-01-10T01:22:40;11.07;;;5.18;;
7473;SDS011;3778;42.572;23.426;2024-01-10T01:25:06;7.05;;;4.10;;
7473;SDS011;3778;42.572;23.426;2024-01-10T01:27:32;12.13;;;5.00;;
7473;SDS011;3778;42.572;23.426;2024-01-10T01:29:57;10.13;;;5.05;;
7473;SDS011;3778;42.572;23.426;2024-01-10T01:32:22;6.10;;;3.55;;
7473;SDS011;3778;42.572;23.426;2024-01-10T01:34:48;6.63;;;3.47;;
7473;SDS011;3778;42.572;23.426;2024-01-10T01:37:13;7.30;;;4.05;;
7473;SDS011;3778;42.572;23.426;2024-01-10T01:39:38;7.70;;;4.30;;
7473;SDS011;3778;42.572;23.426;2024-01-10T01:42:04;6.68;;;3.47;;
7473;SDS011;3778;42.572;23.426;2024-01-10T01:44:29;6.65;;;4.30;;
7473;SDS011;3778;42.572;23.426;2024-01-10T01:46:57;7.35;;;3.75;;
7473;SDS011;3778;42.572;23.426;2024-01-10T01:49:22;9.60;;;4.70;;
7473;SDS011;3778;42.572;23.426;2024-01-10T01:51:50;6.47;;;4.00;;
7473;SDS011;3778;42.572;23.426;2024-01-10T01:54:16;9.57;;;3.05;;
7473;SDS011;3778;42.572;23.426;2024-01-10T01:56:41;5.25;;;3.50;;
7473;SDS011;3778;42.572;23.426;2024-01-10T01:59:09;10.23;;;4.80;;
7473;SDS011;3778;42.572;23.426;2024-01-10T02:01:35;9.73;;;4.63;;
7473;SDS011;3778;42.572;23.426;2024-01-10T02:04:01;6.55;;;3.20;;
7473;SDS011;3778;42.572;23.426;2024-01-10T02:06:28;10.27;;;3.58;;
7473;SDS011;3778;42.572;23.426;2024-01-10T02:08:54;5.57;;;2.92;;
7473;SDS011;3778;42.572;23.426;2024-01-10T02:11:21;6.20;;;3.88;;
7473;SDS011;3778;42.572;23.426;2024-01-10T02:13:47;6.25;;;3.33;;
7473;SDS011;3778;42.572;23.426;2024-01-10T02:16:13;6.03;;;3.67;;
7473;SDS011;3778;42.572;23.426;2024-01-10T02:18:38;7.50;;;3.72;;
7473;SDS011;3778;42.572;23.426;2024-01-10T02:21:04;9.13;;;3.10;;
7473;SDS011;3778;42.572;23.426;2024-01-10T02:23:29;9.40;;;4.18;;
7473;SDS011;3778;42.572;23.426;2024-01-10T02:25:55;8.35;;;4.55;;
7473;SDS011;3778;42.572;23.426;2024-01-10T02:28:20;8.15;;;3.65;;
7473;SDS011;3778;42.572;23.426;2024-01-10T02:30:48;7.97;;;4.30;;
7473;SDS011;3778;42.572;23.426;2024-01-10T02:33:14;7.13;;;3.47;;
7473;SDS011;3778;42.572;23.426;2024-01-10T02:35:40;7.97;;;4.47;;
7473;SDS011;3778;42.572;23.426;2024-01-10T02:38:05;6.90;;;3.83;;
7473;SDS011;3778;42.572;23.426;2024-01-10T02:40:30;8.57;;;4.15;;
7473;SDS011;3778;42.572;23.426;2024-01-10T02:42:56;7.65;;;3.92;;
7473;SDS011;3778;42.572;23.426;2024-01-10T02:45:21;6.85;;;4.00;;
7473;SDS011;3778;42.572;23.426;2024-01-10T02:47:47;5.72;;;3.30;;
7473;SDS011;3778;42.572;23.426;2024-01-10T02:50:12;7.25;;;2.97;;
7473;SDS011;3778;42.572;23.426;2024-01-10T02:52:38;5.50;;;3.25;;
7473;SDS011;3778;42.572;23.426;2024-01-10T02:55:03;5.22;;;3.03;;
7473;SDS011;3778;42.572;23.426;2024-01-10T02:57:29;6.22;;;2.95;;
7473;SDS011;3778;42.572;23.426;2024-01-10T02:59:54;6.45;;;4.47;;
7473;SDS011;3778;42.572;23.426;2024-01-10T03:02:19;7.80;;;4.22;;
7473;SDS011;3778;42.572;23.426;2024-01-10T03:04:45;5.53;;;3.10;;
7473;SDS011;3778;42.572;23.426;2024-01-10T03:07:10;7.10;;;3.05;;
7473;SDS011;3778;42.572;23.426;2024-01-10T03:09:36;10.88;;;2.85;;
7473;SDS011;3778;42.572;23.426;2024-01-10T03:12:01;7.75;;;3.85;;
7473;SDS011;3778;42.572;23.426;2024-01-10T03:14:26;10.38;;;3.72;;
7473;SDS011;3778;42.572;23.426;2024-01-10T03:16:52;7.72;;;4.63;;
7473;SDS011;3778;42.572;23.426;2024-01-10T03:19:18;6.00;;;3.10;;
7473;SDS011;3778;42.572;23.426;2024-01-10T03:21:43;6.68;;;3.30;;
7473;SDS011;3778;42.572;23.426;2024-01-10T03:24:09;8.10;;;2.95;;
7473;SDS011;3778;42.572;23.426;2024-01-10T03:26:34;5.35;;;3.63;;
7473;SDS011;3778;42.572;23.426;2024-01-10T03:29:00;5.88;;;3.50;;
7473;SDS011;3778;42.572;23.426;2024-01-10T03:31:26;6.38;;;3.65;;
7473;SDS011;3778;42.572;23.426;2024-01-10T03:33:53;5.68;;;3.17;;
7473;SDS011;3778;42.572;23.426;2024-01-10T03:36:18;9.25;;;3.63;;
7473;SDS011;3778;42.572;23.426;2024-01-10T03:38:44;5.85;;;3.22;;
7473;SDS011;3778;42.572;23.426;2024-01-10T03:41:13;5.90;;;3.13;;
7473;SDS011;3778;42.572;23.426;2024-01-10T03:43:39;10.65;;;3.90;;
7473;SDS011;3778;42.572;23.426;2024-01-10T03:46:05;7.18;;;3.75;;
7473;SDS011;3778;42.572;23.426;2024-01-10T03:48:30;8.20;;;3.95;;
7473;SDS011;3778;42.572;23.426;2024-01-10T03:50:56;9.05;;;3.65;;
7473;SDS011;3778;42.572;23.426;2024-01-10T03:53:21;9.07;;;3.75;;
7473;SDS011;3778;42.572;23.426;2024-01-10T03:55:47;9.88;;;4.90;;
7473;SDS011;3778;42.572;23.426;2024-01-10T03:58:12;6.95;;;3.95;;
7473;SDS011;3778;42.572;23.426;2024-01-10T04:00:37;8.73;;;4.95;;
7473;SDS011;3778;42.572;23.426;2024-01-10T04:03:03;6.72;;;4.47;;
7473;SDS011;3778;42.572;23.426;2024-01-10T04:05:28;7.15;;;4.78;;
7473;SDS011;3778;42.572;23.426;2024-01-10T04:07:54;9.25;;;3.60;;
7473;SDS011;3778;42.572;23.426;2024-01-10T04:10:21;8.20;;;4.00;;
7473;SDS011;3778;42.572;23.426;2024-01-10T04:12:47;8.20;;;4.65;;
7473;SDS011;3778;42.572;23.426;2024-01-10T04:15:12;9.85;;;5.10;;
7473;SDS011;3778;42.572;23.426;2024-01-10T04:17:38;7.80;;;4.47;;
7473;SDS011;3778;42.572;23.426;2024-01-10T04:20:04;9.70;;;3.78;;
7473;SDS011;3778;42.572;23.426;2024-01-10T04:22:29;7.43;;;4.35;;
7473;SDS011;3778;42.572;23.426;2024-01-10T04:24:58;7.57;;;4.22;;
7473;SDS011;3778;42.572;23.426;2024-01-10T04:27:25;10.38;;;4.82;;
7473;SDS011;3778;42.572;23.426;2024-01-10T04:29:51;6.63;;;4.53;;
7473;SDS011;3778;42.572;23.426;2024-01-10T04:32:16;9.13;;;5.40;;
7473;SDS011;3778;42.572;23.426;2024-01-10T04:34:41;10.07;;;5.38;;
7473;SDS011;3778;42.572;23.426;2024-01-10T04:37:07;9.23;;;5.68;;
7473;SDS011;3778;42.572;23.426;2024-01-10T04:39:35;11.18;;;6.00;;
7473;SDS011;3778;42.572;23.426;2024-01-10T04:42:02;11.50;;;6.43;;
7473;SDS011;3778;42.572;23.426;2024-01-10T04:44:28;13.82;;;6.25;;
7473;SDS011;3778;42.572;23.426;2024-01-10T04:46:54;12.70;;;7.00;;
7473;SDS011;3778;42.572;23.426;2024-01-10T04:49:19;9.90;;;5.45;;
7473;SDS011;3778;42.572;23.426;2024-01-10T04:51:45;10.23;;;5.95;;
7473;SDS011;3778;42.572;23.426;2024-01-10T04:54:11;19.98;;;6.53;;
7473;SDS011;3778;42.572;23.426;2024-01-10T04:56:36;15.77;;;6.80;;
7473;SDS011;3778;42.572;23.426;2024-01-10T04:59:02;5.50;;;4.00;;
7473;SDS011;3778;42.572;23.426;2024-01-10T05:01:28;10.15;;;5.63;;
7473;SDS011;3778;42.572;23.426;2024-01-10T05:03:54;5.68;;;4.72;;
7473;SDS011;3778;42.572;23.426;2024-01-10T05:06:19;11.52;;;5.38;;
7473;SDS011;3778;42.572;23.426;2024-01-10T05:08:45;11.15;;;7.45;;
7473;SDS011;3778;42.572;23.426;2024-01-10T05:11:10;10.52;;;6.05;;
7473;SDS011;3778;42.572;23.426;2024-01-10T05:13:36;9.65;;;4.97;;
7473;SDS011;3778;42.572;23.426;2024-01-10T05:16:02;10.43;;;6.60;;
7473;SDS011;3778;42.572;23.426;2024-01-10T05:18:27;10.20;;;5.28;;
7473;SDS011;3778;42.572;23.426;2024-01-10T05:20:52;10.98;;;5.15;;
7473;SDS011;3778;42.572;23.426;2024-01-10T05:23:18;10.88;;;5.18;;
7473;SDS011;3778;42.572;23.426;2024-01-10T05:25:43;11.98;;;6.38;;
7473;SDS011;3778;42.572;23.426;2024-01-10T05:28:08;14.77;;;5.53;;
7473;SDS011;3778;42.572;23.426;2024-01-10T05:30:34;10.73;;;6.00;;
7473;SDS011;3778;42.572;23.426;2024-01-10T05:33:00;10.35;;;5.53;;
7473;SDS011;3778;42.572;23.426;2024-01-10T05:35:25;10.68;;;5.35;;
7473;SDS011;3778;42.572;23.426;2024-01-10T05:37:51;7.95;;;5.20;;
7473;SDS011;3778;42.572;23.426;2024-01-10T05:40:16;8.50;;;5.03;;
7473;SDS011;3778;42.572;23.426;2024-01-10T05:42:43;15.10;;;5.95;;
7473;SDS011;3778;42.572;23.426;2024-01-10T05:45:09;9.18;;;5.22;;
7473;SDS011;3778;42.572;23.426;2024-01-10T05:47:34;7.45;;;4.97;;
7473;SDS011;3778;42.572;23.426;2024-01-10T05:50:00;12.57;;;4.70;;
7473;SDS011;3778;42.572;23.426;2024-01-10T05:52:25;12.13;;;5.60;;
7473;SDS011;3778;42.572;23.426;2024-01-10T05:54:51;8.75;;;4.50;;
7473;SDS011;3778;42.572;23.426;2024-01-10T05:57:18;8.73;;;5.63;;
7473;SDS011;3778;42.572;23.426;2024-01-10T05:59:43;6.57;;;4.05;;
7473;SDS011;3778;42.572;23.426;2024-01-10T06:02:09;7.68;;;5.35;;
7473;SDS011;3778;42.572;23.426;2024-01-10T06:04:34;7.65;;;4.18;;
7473;SDS011;3778;42.572;23.426;2024-01-10T06:07:01;7.25;;;3.67;;
7473;SDS011;3778;42.572;23.426;2024-01-10T06:09:26;7.10;;;3.63;;
7473;SDS011;3778;42.572;23.426;2024-01-10T06:11:52;9.05;;;5.45;;
7473;SDS011;3778;42.572;23.426;2024-01-10T06:14:18;7.93;;;4.68;;
7473;SDS011;3778;42.572;23.426;2024-01-10T06:16:43;12.88;;;5.85;;
7473;SDS011;3778;42.572;23.426;2024-01-10T06:19:10;15.13;;;5.18;;
7473;SDS011;3778;42.572;23.426;2024-01-10T06:21:38;9.98;;;4.85;;
7473;SDS011;3778;42.572;23.426;2024-01-10T06:24:03;8.25;;;4.38;;
7473;SDS011;3778;42.572;23.426;2024-01-10T06:26:29;8.68;;;4.57;;
7473;SDS011;3778;42.572;23.426;2024-01-10T06:28:54;10.63;;;5.50;;
7473;SDS011;3778;42.572;23.426;2024-01-10T06:31:20;9.05;;;4.07;;
7473;SDS011;3778;42.572;23.426;2024-01-10T06:33:46;8.38;;;4.95;;
7473;SDS011;3778;42.572;23.426;2024-01-10T06:36:11;7.50;;;4.72;;
7473;SDS011;3778;42.572;23.426;2024-01-10T06:38:39;7.97;;;4.68;;
7473;SDS011;3778;42.572;23.426;2024-01-10T06:41:08;8.88;;;5.57;;
7473;SDS011;3778;42.572;23.426;2024-01-10T06:43:34;8.80;;;5.60;;
7473;SDS011;3778;42.572;23.426;2024-01-10T06:46:01;8.05;;;4.25;;
7473;SDS011;3778;42.572;23.426;2024-01-10T06:48:28;11.43;;;5.90;;
7473;SDS011;3778;42.572;23.426;2024-01-10T06:50:54;7.53;;;5.20;;
7473;SDS011;3778;42.572;23.426;2024-01-10T06:53:20;12.05;;;6.57;;
7473;SDS011;3778;42.572;23.426;2024-01-10T06:55:46;8.73;;;4.40;;
7473;SDS011;3778;42.572;23.426;2024-01-10T06:58:11;7.57;;;4.50;;
7473;SDS011;3778;42.572;23.426;2024-01-10T07:00:37;11.40;;;6.10;;
7473;SDS011;3778;42.572;23.426;2024-01-10T07:03:03;10.27;;;5.60;;
7473;SDS011;3778;42.572;23.426;2024-01-10T07:05:29;10.82;;;6.38;;
7473;SDS011;3778;42.572;23.426;2024-01-10T07:07:56;13.38;;;6.43;;
7473;SDS011;3778;42.572;23.426;2024-01-10T07:10:22;8.27;;;4.85;;
7473;SDS011;3778;42.572;23.426;2024-01-10T07:12:51;10.93;;;5.25;;
7473;SDS011;3778;42.572;23.426;2024-01-10T07:15:16;8.88;;;5.00;;
7473;SDS011;3778;42.572;23.426;2024-01-10T07:17:42;8.52;;;4.72;;
7473;SDS011;3778;42.572;23.426;2024-01-10T07:20:08;8.13;;;4.90;;
7473;SDS011;3778;42.572;23.426;2024-01-10T07:22:36;10.40;;;4.72;;
7473;SDS011;3778;42.572;23.426;2024-01-10T07:25:04;11.18;;;5.15;;
7473;SDS011;3778;42.572;23.426;2024-01-10T07:27:31;12.88;;;5.25;;
7473;SDS011;3778;42.572;23.426;2024-01-10T07:29:56;14.57;;;5.50;;
7473;SDS011;3778;42.572;23.426;2024-01-10T07:32:22;5.78;;;4.45;;
7473;SDS011;3778;42.572;23.426;2024-01-10T07:34:48;10.77;;;4.43;;
7473;SDS011;3778;42.572;23.426;2024-01-10T07:37:13;9.15;;;4.50;;
7473;SDS011;3778;42.572;23.426;2024-01-10T07:39:41;7.18;;;4.00;;
7473;SDS011;3778;42.572;23.426;2024-01-10T07:42:07;8.63;;;4.78;;
7473;SDS011;3778;42.572;23.426;2024-01-10T07:44:32;5.97;;;2.80;;
7473;SDS011;3778;42.572;23.426;2024-01-10T07:46:58;5.25;;;2.53;;
7473;SDS011;3778;42.572;23.426;2024-01-10T07:49:23;7.63;;;4.82;;
7473;SDS011;3778;42.572;23.426;2024-01-10T07:51:49;7.78;;;5.07;;
7473;SDS011;3778;42.572;23.426;2024-01-10T07:54:15;9.70;;;5.05;;
7473;SDS011;3778;42.572;23.426;2024-01-10T07:56:40;14.45;;;5.00;;
7473;SDS011;3778;42.572;23.426;2024-01-10T07:59:06;10.63;;;5.57;;
7473;SDS011;3778;42.572;23.426;2024-01-10T08:01:32;12.43;;;5.47;;
7473;SDS011;3778;42.572;23.426;2024-01-10T08:03:57;9.20;;;4.43;;
7473;SDS011;3778;42.572;23.426;2024-01-10T08:06:23;11.93;;;5.50;;
7473;SDS011;3778;42.572;23.426;2024-01-10T08:08:48;23.30;;;6.07;;
7473;SDS011;3778;42.572;23.426;2024-01-10T08:11:13;8.00;;;4.50;;
7473;SDS011;3778;42.572;23.426;2024-01-10T08:13:39;10.98;;;6.13;;
7473;SDS011;3778;42.572;23.426;2024-01-10T08:16:05;7.03;;;4.45;;
7473;SDS011;3778;42.572;23.426;2024-01-10T08:18:33;7.88;;;4.03;;
7473;SDS011;3778;42.572;23.426;2024-01-10T08:20:59;6.05;;;3.63;;
7473;SDS011;3778;42.572;23.426;2024-01-10T08:23:24;9.63;;;5.28;;
7473;SDS011;3778;42.572;23.426;2024-01-10T08:25:50;9.35;;;5.15;;
7473;SDS011;3778;42.572;23.426;2024-01-10T08:28:15;9.35;;;5.03;;
7473;SDS011;3778;42.572;23.426;2024-01-10T08:30:41;8.85;;;3.97;;
7473;SDS011;3778;42.572;23.426;2024-01-10T08:33:07;5.50;;;3.38;;
7473;SDS011;3778;42.572;23.426;2024-01-10T08:35:32;10.98;;;5.95;;
7473;SDS011;3778;42.572;23.426;2024-01-10T08:37:57;7.53;;;4.50;;
7473;SDS011;3778;42.572;23.426;2024-01-10T08:40:23;11.23;;;6.47;;
7473;SDS011;3778;42.572;23.426;2024-01-10T08:42:50;12.80;;;4.63;;
7473;SDS011;3778;42.572;23.426;2024-01-10T08:45:18;10.38;;;5.55;;
7473;SDS011;3778;42.572;23.426;2024-01-10T08:47:44;14.98;;;4.75;;
7473;SDS011;3778;42.572;23.426;2024-01-10T08:50:10;10.32;;;4.78;;
7473;SDS011;3778;42.572;23.426;2024-01-10T08:52:35;10.10;;;5.10;;
7473;SDS011;3778;42.572;23.426;2024-01-10T08:55:07;6.32;;;4.25;;
7473;SDS011;3778;42.572;23.426;2024-01-10T08:57:33;10.07;;;4.43;;
7473;SDS011;3778;42.572;23.426;2024-01-10T08:59:58;10.10;;;4.20;;
7473;SDS011;3778;42.572;23.426;2024-01-10T09:02:24;8.80;;;5.57;;
7473;SDS011;3778;42.572;23.426;2024-01-10T09:04:52;13.88;;;5.60;;
7473;SDS011;3778;42.572;23.426;2024-01-10T09:07:17;10.55;;;5.13;;
7473;SDS011;3778;42.572;23.426;2024-01-10T09:09:43;10.30;;;5.15;;
7473;SDS011;3778;42.572;23.426;2024-01-10T09:12:08;7.93;;;5.13;;
7473;SDS011;3778;42.572;23.426;2024-01-10T09:14:34;9.98;;;5.68;;
7473;SDS011;3778;42.572;23.426;2024-01-10T09:16:59;8.77;;;5.50;;
7473;SDS011;3778;42.572;23.426;2024-01-10T09:19:28;11.80;;;4.85;;
7473;SDS011;3778;42.572;23.426;2024-01-10T09:21:54;11.30;;;6.50;;
7473;SDS011;3778;42.572;23.426;2024-01-10T09:24:21;12.65;;;6.80;;
7473;SDS011;3778;42.572;23.426;2024-01-10T09:26:46;12.27;;;6.57;;
7473;SDS011;3778;42.572;23.426;2024-01-10T09:29:12;10.10;;;6.22;;
7473;SDS011;3778;42.572;23.426;2024-01-10T09:31:37;10.20;;;5.63;;
7473;SDS011;3778;42.572;23.426;2024-01-10T09:34:02;12.80;;;4.65;;
7473;SDS011;3778;42.572;23.426;2024-01-10T09:36:28;11.35;;;6.43;;
7473;SDS011;3778;42.572;23.426;2024-01-10T09:38:53;12.55;;;5.75;;
7473;SDS011;3778;42.572;23.426;2024-01-10T09:41:19;10.40;;;5.13;;
7473;SDS011;3778;42.572;23.426;2024-01-10T09:43:44;10.77;;;4.47;;
7473;SDS011;3778;42.572;23.426;2024-01-10T09:46:10;12.30;;;5.70;;
7473;SDS011;3778;42.572;23.426;2024-01-10T09:48:36;10.32;;;5.00;;
7473;SDS011;3778;42.572;23.426;2024-01-10T09:51:02;9.25;;;6.13;;
7473;SDS011;3778;42.572;23.426;2024-01-10T09:53:27;2.00;;;1.73;;
7473;SDS011;3778;42.572;23.426;2024-01-10T09:55:56;9.65;;;4.95;;
7473;SDS011;3778;42.572;23.426;2024-01-10T09:58:25;7.97;;;4.13;;
7473;SDS011;3778;42.572;23.426;2024-01-10T10:00:53;11.95;;;5.05;;
7473;SDS011;3778;42.572;23.426;2024-01-10T10:03:19;6.28;;;3.72;;
7473;SDS011;3778;42.572;23.426;2024-01-10T10:05:45;3.83;;;3.00;;
7473;SDS011;3778;42.572;23.426;2024-01-10T10:08:11;5.38;;;4.53;;
7473;SDS011;3778;42.572;23.426;2024-01-10T10:10:39;11.68;;;5.50;;
7473;SDS011;3778;42.572;23.426;2024-01-10T10:13:08;11.45;;;5.38;;
7473;SDS011;3778;42.572;23.426;2024-01-10T10:15:36;8.95;;;4.85;;
7473;SDS011;3778;42.572;23.426;2024-01-10T10:18:02;14.00;;;5.82;;
7473;SDS011;3778;42.572;23.426;2024-01-10T10:20:28;9.75;;;5.95;;
7473;SDS011;3778;42.572;23.426;2024-01-10T10:23:01;12.63;;;6.38;;
7473;SDS011;3778;42.572;23.426;2024-01-10T10:27:54;12.88;;;6.63;;
7473;SDS011;3778;42.572;23.426;2024-01-10T10:30:20;12.18;;;6.38;;
7473;SDS011;3778;42.572;23.426;2024-01-10T10:32:45;13.10;;;7.13;;
7473;SDS011;3778;42.572;23.426;2024-01-10T10:35:11;10.05;;;6.35;;
7473;SDS011;3778;42.572;23.426;2024-01-10T10:37:36;12.73;;;6.20;;
7473;SDS011;3778;42.572;23.426;2024-01-10T10:40:01;10.52;;;6.18;;
7473;SDS011;3778;42.572;23.426;2024-01-10T10:42:27;11.95;;;6.53;;
7473;SDS011;3778;42.572;23.426;2024-01-10T10:44:56;15.18;;;7.53;;
7473;SDS011;3778;42.572;23.426;2024-01-10T10:47:27;14.30;;;4.82;;
7473;SDS011;3778;42.572;23.426;2024-01-10T10:50:00;11.98;;;6.80;;
7473;SDS011;3778;42.572;23.426;2024-01-10T10:52:28;12.40;;;7.18;;
7473;SDS011;3778;42.572;23.426;2024-01-10T10:54:55;12.80;;;7.15;;
7473;SDS011;3778;42.572;23.426;2024-01-10T10:57:22;14.23;;;7.25;;
7473;SDS011;3778;42.572;23.426;2024-01-10T10:59:52;15.23;;;7.57;;
7473;SDS011;3778;42.572;23.426;2024-01-10T11:02:20;10.50;;;5.55;;
7473;SDS011;3778;42.572;23.426;2024-01-10T11:04:50;10.90;;;6.00;;
7473;SDS011;3778;42.572;23.426;2024-01-10T11:07:18;17.98;;;7.15;;
7473;SDS011;3778;42.572;23.426;2024-01-10T11:09:43;13.23;;;6.22;;
7473;SDS011;3778;42.572;23.426;2024-01-10T11:12:34;14.73;;;6.68;;
7473;SDS011;3778;42.572;23.426;2024-01-10T11:20:46;11.52;;;6.18;;
7473;SDS011;3778;42.572;23.426;2024-01-10T11:26:16;15.27;;;6.60;;
7473;SDS011;3778;42.572;23.426;2024-01-10T11:28:43;16.27;;;8.52;;
7473;SDS011;3778;42.572;23.426;2024-01-10T11:31:09;18.80;;;8.68;;
7473;SDS011;3778;42.572;23.426;2024-01-10T11:33:36;16.42;;;7.82;;
7473;SDS011;3778;42.572;23.426;2024-01-10T11:36:15;11.57;;;7.18;;
7473;SDS011;3778;42.572;23.426;2024-01-10T11:46:33;12.68;;;7.47;;
7473;SDS011;3778;42.572;23.426;2024-01-10T11:48:59;17.15;;;8.07;;
7473;SDS011;3778;42.572;23.426;2024-01-10T11:51:25;17.38;;;8.88;;
7473;SDS011;3778;42.572;23.426;2024-01-10T11:53:51;12.98;;;6.82;;
7473;SDS011;3778;42.572;23.426;2024-01-10T11:56:18;15.18;;;7.00;;
7473;SDS011;3778;42.572;23.426;2024-01-10T11:58:53;13.77;;;6.70;;
7473;SDS011;3778;42.572;23.426;2024-01-10T12:01:20;10.10;;;6.80;;
7473;SDS011;3778;42.572;23.426;2024-01-10T12:03:46;13.02;;;6.82;;
7473;SDS011;3778;42.572;23.426;2024-01-10T12:06:13;16.23;;;8.35;;
7473;SDS011;3778;42.572;23.426;2024-01-10T12:08:40;15.90;;;7.63;;
7473;SDS011;3778;42.572;23.426;2024-01-10T12:11:05;14.95;;;7.60;;
7473;SDS011;3778;42.572;23.426;2024-01-10T12:13:30;12.07;;;6.70;;
7473;SDS011;3778;42.572;23.426;2024-01-10T12:15:57;14.10;;;8.98;;
7473;SDS011;3778;42.572;23.426;2024-01-10T12:18:23;17.35;;;7.97;;
7473;SDS011;3778;42.572;23.426;2024-01-10T12:20:48;17.42;;;7.63;;
7473;SDS011;3778;42.572;23.426;2024-01-10T12:23:14;14.57;;;7.85;;
7473;SDS011;3778;42.572;23.426;2024-01-10T12:25:39;15.68;;;9.07;;
7473;SDS011;3778;42.572;23.426;2024-01-10T12:28:04;20.02;;;9.65;;
7473;SDS011;3778;42.572;23.426;2024-01-10T12:30:30;19.70;;;9.85;;
7473;SDS011;3778;42.572;23.426;2024-01-10T12:32:55;20.83;;;10.07;;
7473;SDS011;3778;42.572;23.426;2024-01-10T12:35:24;13.90;;;8.10;;
7473;SDS011;3778;42.572;23.426;2024-01-10T12:37:56;19.05;;;9.68;;
7473;SDS011;3778;42.572;23.426;2024-01-10T12:40:21;15.27;;;7.80;;
7473;SDS011;3778;42.572;23.426;2024-01-10T12:42:47;15.23;;;9.48;;
7473;SDS011;3778;42.572;23.426;2024-01-10T12:45:25;19.05;;;8.93;;
7473;SDS011;3778;42.572;23.426;2024-01-10T12:47:52;19.73;;;9.32;;
7473;SDS011;3778;42.572;23.426;2024-01-10T12:50:19;19.42;;;8.95;;
7473;SDS011;3778;42.572;23.426;2024-01-10T12:52:44;14.20;;;8.63;;
7473;SDS011;3778;42.572;23.426;2024-01-10T12:55:10;17.67;;;8.00;;
7473;SDS011;3778;42.572;23.426;2024-01-10T12:57:35;14.90;;;6.47;;
7473;SDS011;3778;42.572;23.426;2024-01-10T13:00:01;17.67;;;6.97;;
7473;SDS011;3778;42.572;23.426;2024-01-10T13:02:31;15.38;;;7.03;;
7473;SDS011;3778;42.572;23.426;2024-01-10T13:05:01;12.90;;;6.78;;
7473;SDS011;3778;42.572;23.426;2024-01-10T13:07:34;16.40;;;8.07;;
7473;SDS011;3778;42.572;23.426;2024-01-10T13:10:02;18.27;;;9.70;;
7473;SDS011;3778;42.572;23.426;2024-01-10T13:12:28;15.23;;;7.65;;
7473;SDS011;3778;42.572;23.426;2024-01-10T13:14:53;13.45;;;7.20;;
7473;SDS011;3778;42.572;23.426;2024-01-10T13:17:19;15.18;;;8.82;;
7473;SDS011;3778;42.572;23.426;2024-01-10T13:19:46;15.98;;;8.20;;
7473;SDS011;3778;42.572;23.426;2024-01-10T13:22:14;19.95;;;10.55;;
7473;SDS011;3778;42.572;23.426;2024-01-10T13:27:12;12.10;;;6.28;;
7473;SDS011;3778;42.572;23.426;2024-01-10T13:29:38;17.40;;;8.63;;
7473;SDS011;3778;42.572;23.426;2024-01-10T13:32:04;23.23;;;13.23;;
7473;SDS011;3778;42.572;23.426;2024-01-10T13:34:30;16.63;;;7.95;;
7473;SDS011;3778;42.572;23.426;2024-01-10T13:36:56;16.55;;;8.45;;
7473;SDS011;3778;42.572;23.426;2024-01-10T13:39:21;18.50;;;9.00;;
7473;SDS011;3778;42.572;23.426;2024-01-10T13:41:46;23.67;;;9.98;;
7473;SDS011;3778;42.572;23.426;2024-01-10T13:44:12;15.60;;;8.82;;
7473;SDS011;3778;42.572;23.426;2024-01-10T13:46:37;17.48;;;8.82;;
7473;SDS011;3778;42.572;23.426;2024-01-10T13:49:03;16.95;;;9.57;;
7473;SDS011;3778;42.572;23.426;2024-01-10T13:51:28;18.02;;;9.60;;
7473;SDS011;3778;42.572;23.426;2024-01-10T13:53:54;23.10;;;10.93;;
7473;SDS011;3778;42.572;23.426;2024-01-10T13:56:19;18.80;;;10.05;;
7473;SDS011;3778;42.572;23.426;2024-01-10T13:58:47;24.85;;;11.15;;
7473;SDS011;3778;42.572;23.426;2024-01-10T14:01:13;19.90;;;10.05;;
7473;SDS011;3778;42.572;23.426;2024-01-10T14:03:39;20.67;;;10.20;;
7473;SDS011;3778;42.572;23.426;2024-01-10T14:06:04;18.98;;;10.30;;
7473;SDS011;3778;42.572;23.426;2024-01-10T14:08:30;16.17;;;9.38;;
7473;SDS011;3778;42.572;23.426;2024-01-10T14:10:56;16.38;;;9.73;;
7473;SDS011;3778;42.572;23.426;2024-01-10T14:13:21;19.02;;;9.43;;
7473;SDS011;3778;42.572;23.426;2024-01-10T14:15:50;17.98;;;9.40;;
7473;SDS011;3778;42.572;23.426;2024-01-10T14:18:15;18.33;;;9.88;;
7473;SDS011;3778;42.572;23.426;2024-01-10T14:20:40;22.55;;;10.38;;
7473;SDS011;3778;42.572;23.426;2024-01-10T14:23:06;18.55;;;9.85;;
7473;SDS011;3778;42.572;23.426;2024-01-10T14:25:31;19.30;;;10.85;;
7473;SDS011;3778;42.572;23.426;2024-01-10T14:27:57;21.50;;;10.55;;
7473;SDS011;3778;42.572;23.426;2024-01-10T14:30:25;18.20;;;9.93;;
7473;SDS011;3778;42.572;23.426;2024-01-10T14:32:52;19.33;;;8.70;;
7473;SDS011;3778;42.572;23.426;2024-01-10T14:35:17;19.73;;;10.38;;
7473;SDS011;3778;42.572;23.426;2024-01-10T14:37:43;19.75;;;10.85;;
7473;SDS011;3778;42.572;23.426;2024-01-10T14:40:08;24.98;;;12.68;;
7473;SDS011;3778;42.572;23.426;2024-01-10T14:42:35;23.88;;;12.15;;
7473;SDS011;3778;42.572;23.426;2024-01-10T14:45:00;23.38;;;12.77;;
7473;SDS011;3778;42.572;23.426;2024-01-10T14:47:26;19.48;;;10.43;;
7473;SDS011;3778;42.572;23.426;2024-01-10T14:49:52;21.83;;;10.52;;
7473;SDS011;3778;42.572;23.426;2024-01-10T14:52:17;17.63;;;10.68;;
7473;SDS011;3778;42.572;23.426;2024-01-10T14:54:42;22.20;;;11.88;;
7473;SDS011;3778;42.572;23.426;2024-01-10T14:57:08;17.92;;;9.40;;
7473;SDS011;3778;42.572;23.426;2024-01-10T14:59:33;18.23;;;9.93;;
7473;SDS011;3778;42.572;23.426;2024-01-10T15:01:58;16.00;;;9.60;;
7473;SDS011;3778;42.572;23.426;2024-01-10T15:04:24;18.52;;;8.85;;
7473;SDS011;3778;42.572;23.426;2024-01-10T15:06:49;18.80;;;9.30;;